createdAt,value
2019-04-21T00:00:54.287Z,56.80
2019-04-21T00:03:25.802Z,56.40
2019-04-21T00:06:12.006Z,55.90
2019-04-21T00:08:54.114Z,55.90
2019-04-21T00:11:26.369Z,56.20
2019-04-21T00:13:46.709Z,56.40
2019-04-21T00:16:07.571Z,56.70
2019-04-21T00:19:00.855Z,57.00
2019-04-21T00:21:32.606Z,57.10
2019-04-21T00:24:20.244Z,57.10
2019-04-21T00:27:06.990Z,57.80
2019-04-21T00:32:03.124Z,57.30
2019-04-21T00:34:21.621Z,57.40
2019-04-21T00:37:03.065Z,57.50
2019-04-21T00:39:49.611Z,57.90
2019-04-21T00:42:14.605Z,58.00
2019-04-21T00:44:38.171Z,57.90
2019-04-21T00:47:25.497Z,57.70
2019-04-21T00:49:56.601Z,57.70
2019-04-21T00:58:03.736Z,58.40
2019-04-21T01:00:32.562Z,58.80
2019-04-21T01:03:12.899Z,59.10
2019-04-21T01:05:43.956Z,59.30
2019-04-21T01:08:09.961Z,59.30
2019-04-21T01:10:28.731Z,59.20
2019-04-21T01:13:14.038Z,59.30
2019-04-21T01:15:43.654Z,59.60
2019-04-21T01:18:09.128Z,59.70
2019-04-21T01:20:21.362Z,59.70
2019-04-21T01:22:51.608Z,59.60
2019-04-21T01:25:30.219Z,59.80
2019-04-21T01:28:12.650Z,60.20
2019-04-21T01:30:50.631Z,60.40
2019-04-21T01:33:17.013Z,60.50
2019-04-21T01:35:48.434Z,60.50
2019-04-21T01:38:21.716Z,60.30
2019-04-21T01:40:57.141Z,60.40
2019-04-21T01:43:18.655Z,60.40
2019-04-21T01:45:51.970Z,60.40
2019-04-21T01:48:21.651Z,61.00
2019-04-21T01:50:51.619Z,61.70
2019-04-21T01:53:48.632Z,62.40
2019-04-21T01:56:34.646Z,63.20
2019-04-21T01:58:56.207Z,63.50
2019-04-21T02:01:39.163Z,63.80
2019-04-21T02:04:14.076Z,63.90
2019-04-21T02:06:44.456Z,64.00
